createdAt,value
2019-03-21T00:01:31.779Z,56.50
2019-03-21T00:04:08.109Z,56.30
2019-03-21T00:06:41.182Z,57.20
2019-03-21T00:09:17.041Z,56.80
2019-03-21T00:12:07.321Z,57.10
2019-03-21T00:14:53.661Z,56.80
2019-03-21T00:17:30.368Z,57.40
2019-03-21T00:20:04.139Z,57.20
2019-03-21T00:22:37.009Z,57.60
2019-03-21T00:25:11.745Z,58.00
2019-03-21T00:27:45.720Z,58.00
2019-03-21T00:30:21.406Z,58.20
2019-03-21T00:32:54.897Z,58.50
2019-03-21T00:35:28.513Z,58.20
2019-03-21T00:38:08.576Z,58.50
2019-03-21T00:40:44.154Z,58.60
2019-03-21T00:43:22.017Z,58.30
2019-03-21T00:45:54.917Z,59.30
2019-03-21T00:48:28.894Z,58.80
2019-03-21T00:51:00.208Z,59.80
2019-03-21T00:53:30.819Z,59.20
2019-03-21T00:56:01.124Z,59.70
2019-03-21T00:58:31.814Z,59.90
2019-03-21T01:01:02.318Z,60.40
2019-03-21T01:03:35.493Z,61.20
2019-03-21T01:06:07.959Z,61.60
2019-03-21T01:08:39.611Z,62.10
2019-03-21T01:11:09.903Z,62.20
2019-03-21T01:13:40.198Z,62.70
2019-03-21T01:16:12.707Z,63.30
2019-03-21T01:18:43.023Z,63.90
2019-03-21T01:21:13.396Z,64.60
2019-03-21T01:23:43.566Z,64.70
2019-03-21T01:26:13.811Z,64.10
2019-03-21T01:28:44.008Z,64.60
2019-03-21T01:31:14.215Z,64.70
2019-03-21T01:33:44.666Z,64.70
2019-03-21T01:36:15.094Z,64.40
2019-03-21T01:38:45.158Z,64.90
2019-03-21T01:41:15.369Z,65.20
2019-03-21T01:43:45.455Z,64.70
2019-03-21T01:46:15.910Z,65.10
2019-03-21T01:48:46.055Z,65.50
2019-03-21T01:51:16.162Z,65.60
2019-03-21T01:53:46.315Z,65.50
2019-03-21T01:56:17.431Z,65.60
2019-03-21T01:58:47.667Z,65.40
2019-03-21T02:01:17.777Z,65.30
2019-03-21T02:03:47.929Z,65.50
2019-03-21T02:06:17.962Z,66.00
2019-03-21T02:08:48.087Z,66.20
2019-03-21T02:11:18.162Z,66.80
2019-03-21T02:13:48.268Z,65.80
2019-03-21T02:16:18.376Z,66.10
2019-03-21T02:18:48.442Z,66.70
2019-03-21T02:21:18.494Z,66.50
2019-03-21T02:23:50.549Z,66.70
2019-03-21T02:26:20.578Z,66.90
2019-03-21T02:28:50.626Z,67.50
2019-03-21T02:31:20.787Z,68.10
2019-03-21T02:33:50.912Z,68.60
2019-03-21T02:36:21.077Z,68.60
2019-03-21T02:38:51.188Z,68.70
2019-03-21T02:41:21.376Z,69.00
2019-03-21T02:43:51.342Z,69.70
2019-03-21T02:46:21.482Z,70.10
2019-03-21T02:48:51.861Z,70.60
2019-03-21T02:51:22.101Z,70.80
2019-03-21T02:53:52.178Z,70.80
2019-03-21T02:56:23.312Z,71.80
2019-03-21T02:58:53.419Z,71.90
2019-03-21T03:01:23.540Z,72.20
2019-03-21T03:03:53.666Z,72.80
2019-03-21T03:06:23.859Z,73.20
2019-03-21T03:08:53.928Z,73.60
2019-03-21T03:11:24.155Z,74.30
2019-03-21T03:13:54.323Z,75.10
2019-03-21T03:16:24.528Z,75.60
2019-03-21T03:18:54.607Z,76.20
2019-03-21T03:21:25.035Z,76.00
2019-03-21T03:23:55.162Z,76.00
2019-03-21T03:26:25.283Z,75.80
2019-03-21T03:28:55.367Z,76.70
2019-03-21T03:31:25.855Z,76.60
2019-03-21T03:33:55.985Z,77.40
2019-03-21T03:36:26.144Z,77.60
2019-03-21T03:38:56.220Z,77.40
2019-03-21T03:41:26.420Z,77.60
2019-03-21T03:43:56.529Z,78.00
2019-03-21T03:46:26.557Z,78.40
2019-03-21T03:48:56.633Z,78.40
2019-03-21T03:51:26.748Z,78.40
2019-03-21T03:53:56.867Z,78.70
2019-03-21T03:56:26.938Z,79.10
2019-03-21T03:58:57.539Z,79.20
2019-03-21T04:01:27.582Z,79.10
2019-03-21T04:03:57.842Z,79.10
2019-03-21T04:06:27.892Z,79.50
2019-03-21T04:08:58.097Z,79.50
2019-03-21T04:11:28.305Z,79.40
2019-03-21T04:13:58.424Z,79.40
2019-03-21T04:16:28.591Z,79.20
2019-03-21T04:18:58.753Z,80.00
2019-03-21T04:21:28.835Z,80.10
2019-03-21T04:23:59.930Z,80.00
2019-03-21T04:26:31.214Z,80.30
2019-03-21T04:29:01.310Z,79.80
2019-03-21T04:31:31.411Z,79.40
2019-03-21T04:34:03.104Z,79.30
2019-03-21T04:36:33.287Z,79.70
2019-03-21T04:39:04.822Z,79.40
2019-03-21T04:41:34.935Z,79.40
2019-03-21T04:44:05.003Z,79.30
2019-03-21T04:46:35.208Z,79.30
2019-03-21T04:49:05.702Z,78.70
2019-03-21T04:51:35.783Z,78.90
2019-03-21T04:54:06.184Z,78.30
2019-03-21T04:56:36.378Z,78.20
2019-03-21T04:59:07.493Z,78.40
2019-03-21T05:01:37.886Z,78.50
2019-03-21T05:04:07.970Z,78.70
2019-03-21T05:06:38.088Z,78.70
2019-03-21T05:09:12.527Z,78.60
2019-03-21T05:11:43.962Z,78.00
2019-03-21T05:14:14.019Z,77.70
2019-03-21T05:16:44.127Z,77.90
2019-03-21T05:19:14.549Z,78.40
2019-03-21T05:21:44.818Z,78.70
2019-03-21T05:24:14.947Z,79.40
2019-03-21T05:26:45.097Z,79.60
2019-03-21T05:29:15.624Z,79.80
2019-03-21T05:31:45.772Z,80.00
2019-03-21T05:34:15.857Z,80.00
2019-03-21T05:36:46.315Z,80.00
2019-03-21T05:39:16.427Z,79.70
2019-03-21T05:41:46.558Z,79.70
2019-03-21T05:44:33.580Z,79.70
2019-03-21T05:47:03.843Z,80.20
2019-03-21T05:49:33.962Z,80.00
2019-03-21T05:52:04.272Z,80.20
2019-03-21T05:54:34.371Z,79.70
2019-03-21T05:57:04.626Z,79.80
2019-03-21T05:59:34.803Z,80.20
2019-03-21T06:02:04.904Z,79.90
2019-03-21T06:04:36.322Z,80.40
2019-03-21T06:07:19.234Z,80.50
2019-03-21T06:09:49.375Z,79.30
2019-03-21T06:12:19.599Z,76.80
2019-03-21T06:14:53.770Z,74.50
2019-03-21T06:17:24.914Z,73.30
2019-03-21T06:20:28.699Z,72.30
2019-03-21T06:23:36.307Z,72.40
2019-03-21T06:26:37.544Z,70.70
2019-03-21T06:29:08.145Z,70.70
2019-03-21T06:31:38.217Z,69.30
2019-03-21T06:34:08.431Z,68.50
2019-03-21T06:36:38.679Z,68.70
2019-03-21T06:39:09.723Z,68.00
2019-03-21T06:41:39.839Z,67.60
2019-03-21T06:44:10.075Z,66.90
2019-03-21T06:46:48.800Z,66.20
2019-03-21T06:49:12.850Z,65.10
2019-03-21T06:51:43.037Z,65.30
2019-03-21T06:54:13.281Z,64.50
2019-03-21T06:56:43.442Z,64.30
2019-03-21T06:59:13.978Z,64.10
2019-03-21T07:01:44.115Z,63.10
2019-03-21T07:04:14.534Z,62.10
2019-03-21T07:06:44.766Z,61.60
2019-03-21T07:09:15.964Z,60.40
2019-03-21T07:11:46.129Z,60.80
2019-03-21T07:14:16.491Z,60.80
2019-03-21T07:16:46.583Z,61.20
2019-03-21T07:19:16.856Z,60.40
2019-03-21T07:21:46.986Z,61.20
2019-03-21T07:24:18.394Z,59.90
2019-03-21T07:26:48.438Z,58.70
2019-03-21T07:29:18.724Z,57.80
2019-03-21T07:31:48.872Z,57.80
2019-03-21T07:34:19.182Z,56.80
2019-03-21T07:36:49.364Z,55.60
2019-03-21T07:39:20.303Z,54.30
2019-03-21T07:41:50.597Z,52.70
2019-03-21T07:44:20.943Z,51.10
2019-03-21T07:46:51.254Z,51.60
2019-03-21T07:49:22.171Z,48.80
2019-03-21T07:51:52.654Z,47.90
2019-03-21T07:54:23.392Z,45.10
2019-03-21T07:56:54.237Z,44.60
2019-03-21T07:59:24.454Z,44.60
2019-03-21T08:01:55.546Z,45.80
2019-03-21T08:04:25.686Z,44.80
2019-03-21T08:06:55.866Z,41.90
2019-03-21T08:09:25.984Z,41.20
2019-03-21T08:11:56.146Z,41.10
2019-03-21T08:14:26.235Z,39.80
2019-03-21T08:16:56.426Z,39.40
2019-03-21T08:19:26.612Z,38.80
2019-03-21T08:21:56.772Z,39.00
2019-03-21T08:24:26.954Z,38.70
2019-03-21T08:26:57.324Z,39.30
2019-03-21T08:29:27.428Z,39.30
2019-03-21T08:31:57.597Z,38.60
2019-03-21T08:34:27.923Z,38.80
2019-03-21T08:36:58.448Z,36.60
2019-03-21T08:39:28.935Z,35.90
2019-03-21T08:41:59.096Z,37.00
2019-03-21T08:44:29.200Z,36.70
2019-03-21T08:46:59.516Z,35.90
2019-03-21T08:49:29.640Z,37.70
2019-03-21T08:52:01.247Z,39.00
2019-03-21T08:54:31.418Z,39.60
2019-03-21T08:57:01.589Z,40.30
2019-03-21T08:59:32.469Z,39.80
2019-03-21T09:02:02.588Z,40.20
2019-03-21T09:04:33.127Z,41.10
2019-03-21T09:07:04.780Z,41.50
2019-03-21T09:09:35.135Z,39.30
2019-03-21T09:12:05.333Z,38.60
2019-03-21T09:14:35.481Z,36.70
2019-03-21T09:17:05.771Z,36.60
2019-03-21T09:19:36.300Z,35.80
2019-03-21T09:22:06.391Z,34.80
2019-03-21T09:24:36.863Z,35.40
2019-03-21T09:27:07.124Z,36.30
2019-03-21T09:29:37.220Z,35.50
2019-03-21T09:32:07.468Z,34.40
2019-03-21T09:34:37.629Z,33.80
2019-03-21T09:37:07.799Z,33.50
2019-03-21T09:39:38.086Z,32.90
2019-03-21T09:42:08.170Z,31.90
2019-03-21T09:44:38.325Z,32.50
2019-03-21T09:47:08.533Z,32.70
2019-03-21T09:49:38.849Z,32.80
2019-03-21T09:52:09.264Z,30.40
2019-03-21T09:54:39.479Z,30.20
2019-03-21T09:57:09.761Z,30.10
2019-03-21T09:59:41.306Z,30.30
2019-03-21T10:02:11.586Z,31.10
2019-03-21T10:04:41.906Z,31.90
2019-03-21T10:07:14.178Z,31.90
2019-03-21T10:09:44.548Z,31.50
2019-03-21T10:12:14.831Z,32.50
2019-03-21T10:14:45.134Z,31.60
2019-03-21T10:17:15.788Z,31.10
2019-03-21T10:19:48.444Z,30.50
2019-03-21T10:22:18.818Z,29.90
2019-03-21T10:24:49.734Z,29.80
2019-03-21T10:27:20.243Z,29.30
2019-03-21T10:29:50.735Z,29.80
2019-03-21T10:32:21.235Z,28.50
2019-03-21T10:34:52.614Z,29.00
2019-03-21T10:37:23.188Z,29.20
2019-03-21T10:39:53.715Z,29.20
2019-03-21T10:42:24.028Z,28.70
2019-03-21T10:44:54.943Z,27.80
2019-03-21T10:47:25.637Z,27.60
2019-03-21T10:49:57.156Z,26.40
2019-03-21T10:52:27.856Z,27.80
2019-03-21T10:54:58.354Z,27.10
2019-03-21T10:57:28.669Z,27.10
2019-03-21T11:00:01.623Z,26.30
2019-03-21T11:02:31.311Z,26.20
2019-03-21T11:05:01.921Z,26.60
2019-03-21T11:07:32.714Z,25.60
2019-03-21T11:10:03.616Z,25.00
2019-03-21T11:12:34.498Z,25.20
2019-03-21T11:15:05.238Z,25.90
2019-03-21T11:17:36.371Z,26.50
2019-03-21T11:20:07.075Z,27.10
2019-03-21T11:22:37.588Z,26.60
2019-03-21T11:25:08.309Z,26.90
2019-03-21T11:27:38.902Z,28.30
2019-03-21T11:30:16.007Z,28.90
2019-03-21T11:32:43.543Z,30.00
2019-03-21T11:35:13.789Z,31.80
2019-03-21T11:37:44.138Z,33.90
2019-03-21T11:40:14.478Z,33.10
2019-03-21T11:42:44.755Z,33.20
2019-03-21T11:45:15.574Z,33.40
2019-03-21T11:47:45.835Z,33.30
2019-03-21T11:50:16.710Z,33.60
2019-03-21T11:52:47.243Z,34.20
2019-03-21T11:55:19.250Z,34.30
2019-03-21T11:57:50.748Z,34.60
2019-03-21T12:00:21.264Z,35.20
2019-03-21T12:02:51.893Z,35.60
2019-03-21T12:05:22.680Z,36.10
2019-03-21T12:07:53.122Z,39.20
2019-03-21T12:10:24.044Z,40.00
2019-03-21T12:12:54.934Z,39.70
2019-03-21T12:15:25.573Z,38.20
2019-03-21T12:17:56.126Z,38.30
2019-03-21T12:20:35.144Z,37.40
2019-03-21T12:23:06.242Z,38.00
2019-03-21T12:25:36.531Z,39.40
2019-03-21T12:28:07.892Z,37.00
2019-03-21T12:30:40.003Z,36.70
2019-03-21T12:33:12.054Z,38.60
2019-03-21T12:35:42.272Z,39.00
2019-03-21T12:38:16.513Z,38.70
2019-03-21T12:40:47.031Z,37.80
2019-03-21T12:43:19.127Z,38.30
2019-03-21T12:45:49.571Z,37.80
2019-03-21T12:48:20.044Z,37.60
2019-03-21T12:50:50.280Z,37.80
2019-03-21T12:53:20.429Z,38.10
2019-03-21T12:55:50.711Z,37.40
2019-03-21T12:58:22.027Z,37.30
2019-03-21T13:00:52.456Z,38.20
2019-03-21T13:03:22.552Z,38.40
2019-03-21T13:05:53.076Z,38.00
2019-03-21T13:08:33.409Z,37.50
2019-03-21T13:10:55.273Z,36.70
2019-03-21T13:13:25.654Z,36.30
2019-03-21T13:15:56.065Z,36.70
2019-03-21T13:18:27.465Z,35.90
2019-03-21T13:20:58.845Z,35.60
2019-03-21T13:23:29.531Z,36.00
2019-03-21T13:25:59.825Z,35.70
2019-03-21T13:28:30.456Z,34.90
2019-03-21T13:31:02.864Z,35.20
2019-03-21T13:33:33.104Z,35.30
2019-03-21T13:36:03.552Z,35.20
2019-03-21T13:38:33.913Z,34.90
2019-03-21T13:41:04.233Z,35.30
2019-03-21T13:43:34.533Z,34.70
2019-03-21T13:46:04.979Z,35.10
2019-03-21T13:48:35.251Z,33.50
2019-03-21T13:51:05.670Z,34.70
2019-03-21T13:53:35.826Z,35.40
2019-03-21T13:56:06.518Z,35.90
2019-03-21T13:58:37.363Z,35.20
2019-03-21T14:01:07.484Z,35.10
2019-03-21T14:03:38.713Z,34.50
2019-03-21T14:06:10.120Z,35.90
2019-03-21T14:08:40.357Z,35.80
2019-03-21T14:11:10.687Z,35.20
2019-03-21T14:13:41.971Z,35.00
2019-03-21T14:16:12.664Z,35.10
2019-03-21T14:18:42.969Z,35.50
2019-03-21T14:21:13.334Z,35.00
2019-03-21T14:23:45.011Z,35.20
2019-03-21T14:26:15.394Z,35.50
2019-03-21T14:28:46.402Z,35.90
2019-03-21T14:31:18.412Z,36.10
2019-03-21T14:33:49.233Z,35.50
2019-03-21T14:36:19.447Z,36.10
2019-03-21T14:38:50.108Z,35.10
2019-03-21T14:41:20.415Z,35.70
2019-03-21T14:43:50.645Z,36.10
2019-03-21T14:46:20.848Z,36.40
2019-03-21T14:48:50.976Z,36.40
2019-03-21T14:51:21.216Z,36.20
2019-03-21T14:53:52.388Z,35.60
2019-03-21T14:56:23.322Z,35.00
2019-03-21T14:58:53.539Z,34.80
2019-03-21T15:01:23.865Z,34.10
2019-03-21T15:03:54.401Z,34.20
2019-03-21T15:06:25.187Z,34.70
2019-03-21T15:08:55.702Z,34.90
2019-03-21T15:11:25.956Z,34.90
2019-03-21T15:13:56.436Z,34.90
2019-03-21T15:16:26.679Z,34.90
2019-03-21T15:18:57.017Z,35.00
2019-03-21T15:21:29.593Z,34.80
2019-03-21T15:24:00.030Z,34.60
2019-03-21T15:26:31.035Z,34.90
2019-03-21T15:29:01.826Z,34.40
2019-03-21T15:31:32.536Z,34.60
2019-03-21T15:34:02.784Z,33.80
2019-03-21T15:36:32.892Z,34.00
2019-03-21T15:39:03.113Z,33.90
2019-03-21T15:41:34.571Z,34.00
2019-03-21T15:44:04.668Z,33.50
2019-03-21T15:46:35.023Z,32.90
2019-03-21T15:49:05.350Z,33.50
2019-03-21T15:51:36.768Z,33.40
2019-03-21T15:54:07.293Z,33.20
2019-03-21T15:56:37.560Z,33.70
2019-03-21T15:59:08.642Z,33.60
2019-03-21T16:01:39.259Z,33.70
2019-03-21T16:04:09.503Z,33.80
2019-03-21T16:06:40.051Z,34.70
2019-03-21T16:09:10.439Z,33.70
2019-03-21T16:11:40.804Z,33.80
2019-03-21T16:14:10.984Z,33.90
2019-03-21T16:16:41.243Z,33.60
2019-03-21T16:19:11.466Z,34.20
2019-03-21T16:21:41.641Z,33.90
2019-03-21T16:24:11.940Z,33.90
2019-03-21T16:26:42.186Z,34.00
2019-03-21T16:29:12.497Z,34.30
2019-03-21T16:31:42.927Z,34.30
2019-03-21T16:34:13.169Z,34.60
2019-03-21T16:36:46.192Z,34.00
2019-03-21T16:39:16.932Z,34.40
2019-03-21T16:41:51.551Z,34.40
2019-03-21T16:44:22.471Z,34.40
2019-03-21T16:46:52.811Z,34.80
2019-03-21T16:49:22.985Z,34.80
2019-03-21T16:51:53.148Z,35.00
2019-03-21T16:54:23.577Z,35.10
2019-03-21T16:56:53.878Z,35.60
2019-03-21T16:59:24.230Z,35.50
2019-03-21T17:01:54.846Z,36.10
2019-03-21T17:04:25.093Z,36.00
2019-03-21T17:06:55.310Z,36.50
2019-03-21T17:09:26.900Z,36.20
2019-03-21T17:11:57.187Z,36.30
2019-03-21T17:14:28.075Z,36.80
2019-03-21T17:16:58.341Z,36.50
2019-03-21T17:19:28.571Z,36.60
2019-03-21T17:21:58.779Z,37.10
2019-03-21T17:24:29.929Z,36.90
2019-03-21T17:27:00.355Z,37.30
2019-03-21T17:29:30.514Z,37.30
2019-03-21T17:32:00.675Z,37.60
2019-03-21T17:34:31.124Z,37.70
2019-03-21T17:37:01.408Z,38.00
2019-03-21T17:39:31.868Z,38.10
2019-03-21T17:42:02.020Z,38.30
2019-03-21T17:44:32.462Z,38.60
2019-03-21T17:47:02.615Z,38.80
2019-03-21T17:49:33.067Z,38.60
2019-03-21T17:52:03.224Z,38.90
2019-03-21T17:54:41.517Z,39.00
2019-03-21T17:57:05.848Z,38.70
2019-03-21T17:59:36.219Z,39.10
2019-03-21T18:02:07.141Z,39.30
2019-03-21T18:04:38.026Z,39.20
2019-03-21T18:07:08.203Z,39.40
2019-03-21T18:09:38.370Z,39.50
2019-03-21T18:12:08.507Z,39.40
2019-03-21T18:14:38.980Z,40.00
2019-03-21T18:17:09.368Z,39.90
2019-03-21T18:19:39.565Z,39.90
2019-03-21T18:22:09.838Z,40.20
2019-03-21T18:24:53.057Z,40.30
2019-03-21T18:27:12.950Z,40.40
2019-03-21T18:29:43.078Z,40.70
2019-03-21T18:32:13.294Z,40.70
2019-03-21T18:34:43.684Z,41.30
2019-03-21T18:37:13.972Z,41.10
2019-03-21T18:39:44.649Z,41.40
2019-03-21T18:42:15.033Z,41.20
2019-03-21T18:44:45.223Z,41.30
2019-03-21T18:47:15.511Z,41.70
2019-03-21T18:49:45.810Z,41.60
2019-03-21T18:52:15.975Z,41.90
2019-03-21T18:54:46.206Z,41.70
2019-03-21T18:57:16.512Z,41.90
2019-03-21T18:59:46.762Z,41.60
2019-03-21T19:02:17.083Z,41.90
2019-03-21T19:04:48.386Z,42.80
2019-03-21T19:07:18.649Z,42.90
2019-03-21T19:09:49.281Z,42.80
2019-03-21T19:12:19.567Z,42.60
2019-03-21T19:14:49.788Z,42.60
2019-03-21T19:17:20.042Z,42.80
2019-03-21T19:19:50.240Z,43.00
2019-03-21T19:22:20.451Z,42.70
2019-03-21T19:24:50.708Z,43.00
2019-03-21T19:27:20.876Z,42.80
2019-03-21T19:29:51.076Z,43.00
2019-03-21T19:32:21.295Z,42.70
2019-03-21T19:34:51.519Z,42.60
2019-03-21T19:37:21.792Z,42.50
2019-03-21T19:42:27.394Z,42.50
2019-03-21T19:44:57.619Z,41.90
2019-03-21T19:47:30.309Z,42.00
2019-03-21T19:49:59.672Z,41.50
2019-03-21T19:52:29.888Z,41.50
2019-03-21T19:57:59.362Z,40.80
2019-03-21T20:00:34.548Z,40.60
2019-03-21T20:03:06.869Z,40.80
2019-03-21T20:05:37.314Z,41.20
2019-03-21T20:08:18.824Z,41.10
2019-03-21T20:10:52.430Z,40.90
2019-03-21T20:13:33.158Z,41.30
2019-03-21T20:16:09.972Z,40.70
2019-03-21T20:18:43.320Z,41.20
2019-03-21T20:21:16.395Z,41.60
2019-03-21T20:33:55.177Z,42.10
2019-03-21T20:36:29.149Z,42.10
2019-03-21T20:39:02.447Z,42.20
2019-03-21T20:41:36.565Z,42.60
2019-03-21T20:44:15.366Z,41.80
2019-03-21T20:47:16.245Z,42.30
2019-03-21T20:49:46.873Z,41.60
2019-03-21T20:52:17.920Z,41.70
2019-03-21T20:54:49.512Z,42.00
2019-03-21T20:57:19.878Z,42.10
2019-03-21T20:59:50.171Z,42.10
2019-03-21T21:02:20.550Z,41.80
2019-03-21T21:04:51.361Z,42.00
2019-03-21T21:07:22.629Z,42.10
2019-03-21T21:09:53.756Z,41.70
2019-03-21T21:12:27.073Z,42.20
2019-03-21T21:14:58.755Z,42.00
2019-03-21T21:18:15.529Z,42.10
2019-03-21T21:20:45.822Z,42.30
2019-03-21T21:23:16.127Z,42.40
2019-03-21T21:25:47.760Z,42.20
2019-03-21T21:28:17.947Z,42.70
2019-03-21T21:30:48.174Z,42.60
2019-03-21T21:33:18.416Z,42.80
2019-03-21T21:35:48.544Z,42.80
2019-03-21T21:38:18.715Z,43.20
2019-03-21T21:40:49.431Z,43.30
2019-03-21T21:43:19.618Z,43.50
2019-03-21T21:45:50.912Z,43.30
2019-03-21T21:48:21.220Z,43.20
2019-03-21T21:50:51.522Z,43.20
2019-03-21T21:53:21.742Z,43.30
2019-03-21T21:55:51.903Z,43.30
2019-03-21T21:58:22.090Z,43.70
2019-03-21T22:00:53.151Z,43.90
2019-03-21T22:03:23.463Z,44.00
2019-03-21T22:05:53.712Z,44.10
2019-03-21T22:08:24.227Z,44.50
2019-03-21T22:10:54.467Z,44.90
2019-03-21T22:13:24.716Z,44.50
2019-03-21T22:15:54.909Z,44.80
2019-03-21T22:18:25.717Z,44.90
2019-03-21T22:20:55.931Z,44.80
2019-03-21T22:23:26.132Z,44.70
2019-03-21T22:25:56.370Z,45.00
2019-03-21T22:28:26.807Z,45.30
2019-03-21T22:30:57.133Z,45.30
2019-03-21T22:33:29.462Z,45.10
2019-03-21T22:35:59.659Z,45.30
2019-03-21T22:38:30.536Z,45.50
2019-03-21T22:41:00.815Z,45.70
2019-03-21T22:43:31.780Z,46.00
2019-03-21T22:46:01.896Z,46.00
2019-03-21T22:48:33.863Z,46.50
2019-03-21T22:51:04.084Z,46.60
2019-03-21T22:53:35.261Z,46.70
2019-03-21T22:56:05.549Z,46.90
2019-03-21T22:58:36.707Z,47.10
2019-03-21T23:01:07.153Z,46.90
2019-03-21T23:03:40.642Z,46.90
2019-03-21T23:06:10.796Z,46.70
2019-03-21T23:08:40.996Z,47.20
2019-03-21T23:11:11.110Z,47.10
2019-03-21T23:13:41.908Z,47.30
2019-03-21T23:16:12.091Z,47.20
2019-03-21T23:18:42.950Z,48.40
2019-03-21T23:21:13.130Z,48.40
2019-03-21T23:23:43.303Z,48.20
2019-03-21T23:26:14.095Z,48.10
2019-03-21T23:28:44.401Z,48.10
2019-03-21T23:31:15.590Z,48.40
2019-03-21T23:33:45.835Z,48.40
2019-03-21T23:36:15.951Z,48.70
2019-03-21T23:38:46.834Z,49.10
2019-03-21T23:41:16.955Z,49.30
2019-03-21T23:43:47.851Z,49.30
2019-03-21T23:46:18.063Z,50.00
2019-03-21T23:48:48.967Z,49.70
2019-03-21T23:51:19.223Z,50.10
2019-03-21T23:53:50.050Z,50.40
2019-03-21T23:56:20.227Z,51.00
2019-03-21T23:58:51.003Z,51.30
